sensor_id;sensor_type;location;lat;lon;timestamp;temperature;humidity
31729;DHT22;18309;43.658;1.312;2022-11-20T00:00:06;8.30;99.90
31729;DHT22;18309;43.658;1.312;2022-11-20T00:02:32;8.30;99.90
31729;DHT22;18309;43.658;1.312;2022-11-20T00:04:57;8.20;99.90
31729;DHT22;18309;43.658;1.312;2022-11-20T00:07:23;8.20;99.90
31729;DHT22;18309;43.658;1.312;2022-11-20T00:09:49;8.20;99.90
31729;DHT22;18309;43.658;1.312;2022-11-20T00:12:14;8.20;99.90
31729;DHT22;18309;43.658;1.312;2022-11-20T00:14:40;8.20;99.90
31729;DHT22;18309;43.658;1.312;2022-11-20T00:17:06;8.20;99.90
31729;DHT22;18309;43.658;1.312;2022-11-20T00:19:32;8.20;99.90
31729;DHT22;18309;43.658;1.312;2022-11-20T00:21:58;8.20;99.90
31729;DHT22;18309;43.658;1.312;2022-11-20T00:24:23;8.20;99.90
31729;DHT22;18309;43.658;1.312;2022-11-20T00:26:49;8.20;99.90
31729;DHT22;18309;43.658;1.312;2022-11-20T00:29:15;8.20;99.90
31729;DHT22;18309;43.658;1.312;2022-11-20T00:31:41;8.10;99.90
31729;DHT22;18309;43.658;1.312;2022-11-20T00:34:06;8.10;99.90
31729;DHT22;18309;43.658;1.312;2022-11-20T00:36:33;8.20;99.90
31729;DHT22;18309;43.658;1.312;2022-11-20T00:38:59;8.10;99.90
31729;DHT22;18309;43.658;1.312;2022-11-20T00:41:27;8.10;99.90
31729;DHT22;18309;43.658;1.312;2022-11-20T00:43:54;8.10;99.90
31729;DHT22;18309;43.658;1.312;2022-11-20T00:46:22;8.10;99.90
31729;DHT22;18309;43.658;1.312;2022-11-20T00:48:48;8.10;99.90
31729;DHT22;18309;43.658;1.312;2022-11-20T00:51:16;8.00;99.90
31729;DHT22;18309;43.658;1.312;2022-11-20T00:53:42;8.10;99.90
31729;DHT22;18309;43.658;1.312;2022-11-20T00:56:11;8.00;99.90
31729;DHT22;18309;43.658;1.312;2022-11-20T00:58:39;8.00;99.90
31729;DHT22;18309;43.658;1.312;2022-11-20T01:03:35;7.90;99.90
31729;DHT22;18309;43.658;1.312;2022-11-20T01:06:03;7.90;99.90
31729;DHT22;18309;43.658;1.312;2022-11-20T01:08:31;7.90;99.90
31729;DHT22;18309;43.658;1.312;2022-11-20T01:11:05;7.90;99.90
31729;DHT22;18309;43.658;1.312;2022-11-20T01:13:32;7.90;99.90
31729;DHT22;18309;43.658;1.312;2022-11-20T01:16:21;7.80;99.90
31729;DHT22;18309;43.658;1.312;2022-11-20T01:18:52;7.80;99.90
31729;DHT22;18309;43.658;1.312;2022-11-20T01:21:29;7.80;99.90
31729;DHT22;18309;43.658;1.312;2022-11-20T01:23:56;7.80;99.90
31729;DHT22;18309;43.658;1.312;2022-11-20T01:26:28;7.80;99.90
31729;DHT22;18309;43.658;1.312;2022-11-20T01:28:55;7.70;99.90
31729;DHT22;18309;43.658;1.312;2022-11-20T01:31:25;7.70;99.90
31729;DHT22;18309;43.658;1.312;2022-11-20T01:33:53;7.70;99.90
31729;DHT22;18309;43.658;1.312;2022-11-20T01:36:21;7.70;99.90
31729;DHT22;18309;43.658;1.312;2022-11-20T01:38:47;7.70;99.90
31729;DHT22;18309;43.658;1.312;2022-11-20T01:41:15;7.60;99.90
31729;DHT22;18309;43.658;1.312;2022-11-20T01:44:02;7.60;99.90
31729;DHT22;18309;43.658;1.312;2022-11-20T01:46:28;7.60;99.90
31729;DHT22;18309;43.658;1.312;2022-11-20T01:49:04;7.60;99.90
31729;DHT22;18309;43.658;1.312;2022-11-20T01:54:05;7.60;99.90
31729;DHT22;18309;43.658;1.312;2022-11-20T01:56:35;7.50;99.90
31729;DHT22;18309;43.658;1.312;2022-11-20T01:59:04;7.50;99.90
31729;DHT22;18309;43.658;1.312;2022-11-20T02:01:31;7.50;99.90
31729;DHT22;18309;43.658;1.312;2022-11-20T02:03:57;7.50;99.90
31729;DHT22;18309;43.658;1.312;2022-11-20T02:08:51;7.50;99.90
31729;DHT22;18309;43.658;1.312;2022-11-20T02:11:17;7.40;99.90
31729;DHT22;18309;43.658;1.312;2022-11-20T02:13:44;7.40;99.90
31729;DHT22;18309;43.658;1.312;2022-11-20T02:18:42;7.40;99.90
31729;DHT22;18309;43.658;1.312;2022-11-20T02:24:03;7.30;99.90
31729;DHT22;18309;43.658;1.312;2022-11-20T02:26:32;7.30;99.90
31729;DHT22;18309;43.658;1.312;2022-11-20T02:28:59;7.30;99.90
31729;DHT22;18309;43.658;1.312;2022-11-20T02:31:26;7.20;99.90
31729;DHT22;18309;43.658;1.312;2022-11-20T02:33:57;7.20;99.90
31729;DHT22;18309;43.658;1.312;2022-11-20T02:36:26;7.20;99.90
31729;DHT22;18309;43.658;1.312;2022-11-20T02:38:52;7.20;99.90
31729;DHT22;18309;43.658;1.312;2022-11-20T02:41:18;7.20;99.90
31729;DHT22;18309;43.658;1.312;2022-11-20T02:43:43;7.20;99.90
31729;DHT22;18309;43.658;1.312;2022-11-20T02:46:09;7.20;99.90
31729;DHT22;18309;43.658;1.312;2022-11-20T02:48:35;7.20;99.90
31729;DHT22;18309;43.658;1.312;2022-11-20T02:51:01;7.10;99.90
31729;DHT22;18309;43.658;1.312;2022-11-20T02:53:26;7.10;99.90
31729;DHT22;18309;43.658;1.312;2022-11-20T02:55:52;7.10;99.90
31729;DHT22;18309;43.658;1.312;2022-11-20T02:58:18;7.10;99.90
31729;DHT22;18309;43.658;1.312;2022-11-20T03:00:44;7.10;99.90
31729;DHT22;18309;43.658;1.312;2022-11-20T03:03:09;7.10;99.90
31729;DHT22;18309;43.658;1.312;2022-11-20T03:05:35;7.00;99.90
31729;DHT22;18309;43.658;1.312;2022-11-20T03:08:01;7.00;99.90
31729;DHT22;18309;43.658;1.312;2022-11-20T03:10:26;7.00;99.90
31729;DHT22;18309;43.658;1.312;2022-11-20T03:12:53;7.00;99.90
31729;DHT22;18309;43.658;1.312;2022-11-20T03:15:20;7.00;99.90
31729;DHT22;18309;43.658;1.312;2022-11-20T03:17:45;6.90;99.90
31729;DHT22;18309;43.658;1.312;2022-11-20T03:20:11;7.00;99.90
31729;DHT22;18309;43.658;1.312;2022-11-20T03:22:37;6.90;99.90
31729;DHT22;18309;43.658;1.312;2022-11-20T03:25:03;6.90;99.90
31729;DHT22;18309;43.658;1.312;2022-11-20T03:27:32;6.90;99.90
31729;DHT22;18309;43.658;1.312;2022-11-20T03:29:59;6.90;99.90
31729;DHT22;18309;43.658;1.312;2022-11-20T03:32:24;6.90;99.90
31729;DHT22;18309;43.658;1.312;2022-11-20T03:34:50;6.80;99.90
31729;DHT22;18309;43.658;1.312;2022-11-20T03:37:16;6.90;99.90
31729;DHT22;18309;43.658;1.312;2022-11-20T03:39:41;6.90;99.90
31729;DHT22;18309;43.658;1.312;2022-11-20T03:42:08;6.80;99.90
31729;DHT22;18309;43.658;1.312;2022-11-20T03:44:54;6.80;99.90
31729;DHT22;18309;43.658;1.312;2022-11-20T03:47:19;6.80;99.90
31729;DHT22;18309;43.658;1.312;2022-11-20T03:49:45;6.80;99.90
31729;DHT22;18309;43.658;1.312;2022-11-20T03:52:11;6.70;99.90
31729;DHT22;18309;43.658;1.312;2022-11-20T03:54:36;6.80;99.90
31729;DHT22;18309;43.658;1.312;2022-11-20T03:57:02;6.80;99.90
31729;DHT22;18309;43.658;1.312;2022-11-20T03:59:27;6.70;99.90
31729;DHT22;18309;43.658;1.312;2022-11-20T04:01:53;6.70;99.90
31729;DHT22;18309;43.658;1.312;2022-11-20T04:04:19;6.70;99.90
31729;DHT22;18309;43.658;1.312;2022-11-20T04:06:44;6.70;99.90
31729;DHT22;18309;43.658;1.312;2022-11-20T04:09:10;6.70;99.90
31729;DHT22;18309;43.658;1.312;2022-11-20T04:11:39;6.60;99.90
31729;DHT22;18309;43.658;1.312;2022-11-20T04:14:06;6.60;99.90
31729;DHT22;18309;43.658;1.312;2022-11-20T04:16:37;6.60;99.90
31729;DHT22;18309;43.658;1.312;2022-11-20T04:19:05;6.50;99.90
31729;DHT22;18309;43.658;1.312;2022-11-20T04:21:32;6.50;99.90
31729;DHT22;18309;43.658;1.312;2022-11-20T04:23:58;6.50;99.90
31729;DHT22;18309;43.658;1.312;2022-11-20T04:26:25;6.50;99.90
31729;DHT22;18309;43.658;1.312;2022-11-20T04:28:51;6.50;99.90
31729;DHT22;18309;43.658;1.312;2022-11-20T04:31:21;6.50;99.90
31729;DHT22;18309;43.658;1.312;2022-11-20T04:33:47;6.50;99.90
31729;DHT22;18309;43.658;1.312;2022-11-20T04:38:40;6.40;99.90
31729;DHT22;18309;43.658;1.312;2022-11-20T04:41:07;6.40;99.90
31729;DHT22;18309;43.658;1.312;2022-11-20T04:43:34;6.40;99.90
31729;DHT22;18309;43.658;1.312;2022-11-20T04:46:00;6.40;99.90
31729;DHT22;18309;43.658;1.312;2022-11-20T04:48:28;6.40;99.90
31729;DHT22;18309;43.658;1.312;2022-11-20T04:50:54;6.40;99.90
31729;DHT22;18309;43.658;1.312;2022-11-20T04:53:21;6.40;99.90
31729;DHT22;18309;43.658;1.312;2022-11-20T04:55:47;6.30;99.90
31729;DHT22;18309;43.658;1.312;2022-11-20T04:58:14;6.30;99.90
31729;DHT22;18309;43.658;1.312;2022-11-20T05:00:40;6.30;99.90
31729;DHT22;18309;43.658;1.312;2022-11-20T05:03:05;6.30;99.90
31729;DHT22;18309;43.658;1.312;2022-11-20T05:05:33;6.30;99.90
31729;DHT22;18309;43.658;1.312;2022-11-20T05:07:59;6.20;99.90
31729;DHT22;18309;43.658;1.312;2022-11-20T05:10:25;6.30;99.90
31729;DHT22;18309;43.658;1.312;2022-11-20T05:12:51;6.20;99.90
31729;DHT22;18309;43.658;1.312;2022-11-20T05:15:17;6.20;99.90
31729;DHT22;18309;43.658;1.312;2022-11-20T05:17:49;6.20;99.90
31729;DHT22;18309;43.658;1.312;2022-11-20T05:20:16;6.20;99.90
31729;DHT22;18309;43.658;1.312;2022-11-20T05:22:41;6.20;99.90
31729;DHT22;18309;43.658;1.312;2022-11-20T05:25:08;6.20;99.90
31729;DHT22;18309;43.658;1.312;2022-11-20T05:27:33;6.20;99.90
31729;DHT22;18309;43.658;1.312;2022-11-20T05:29:59;6.10;99.90
31729;DHT22;18309;43.658;1.312;2022-11-20T05:32:25;6.10;99.90
31729;DHT22;18309;43.658;1.312;2022-11-20T05:34:51;6.10;99.90
31729;DHT22;18309;43.658;1.312;2022-11-20T05:37:17;6.10;99.90
31729;DHT22;18309;43.658;1.312;2022-11-20T05:39:43;6.10;99.90
31729;DHT22;18309;43.658;1.312;2022-11-20T05:42:08;6.10;99.90
31729;DHT22;18309;43.658;1.312;2022-11-20T05:44:52;6.10;99.90
31729;DHT22;18309;43.658;1.312;2022-11-20T05:47:18;6.00;99.90
31729;DHT22;18309;43.658;1.312;2022-11-20T05:49:43;6.00;99.90
31729;DHT22;18309;43.658;1.312;2022-11-20T05:52:09;6.00;99.90
31729;DHT22;18309;43.658;1.312;2022-11-20T05:54:35;6.00;99.90
31729;DHT22;18309;43.658;1.312;2022-11-20T05:57:01;6.10;99.90
31729;DHT22;18309;43.658;1.312;2022-11-20T05:59:26;6.00;99.90
31729;DHT22;18309;43.658;1.312;2022-11-20T06:01:52;6.00;99.90
31729;DHT22;18309;43.658;1.312;2022-11-20T06:04:18;6.00;99.90
31729;DHT22;18309;43.658;1.312;2022-11-20T06:06:43;6.00;99.90
31729;DHT22;18309;43.658;1.312;2022-11-20T06:09:09;6.00;99.90
31729;DHT22;18309;43.658;1.312;2022-11-20T06:11:35;5.90;99.90
31729;DHT22;18309;43.658;1.312;2022-11-20T06:14:00;5.90;99.90
31729;DHT22;18309;43.658;1.312;2022-11-20T06:16:26;5.90;99.90
31729;DHT22;18309;43.658;1.312;2022-11-20T06:18:52;5.90;99.90
31729;DHT22;18309;43.658;1.312;2022-11-20T06:21:20;5.90;99.90
31729;DHT22;18309;43.658;1.312;2022-11-20T06:23:46;5.90;99.90
31729;DHT22;18309;43.658;1.312;2022-11-20T06:26:18;5.90;99.90
31729;DHT22;18309;43.658;1.312;2022-11-20T06:28:44;5.90;99.90
31729;DHT22;18309;43.658;1.312;2022-11-20T06:31:12;5.90;99.90
31729;DHT22;18309;43.658;1.312;2022-11-20T06:33:39;5.90;99.90
31729;DHT22;18309;43.658;1.312;2022-11-20T06:36:05;5.80;99.90
31729;DHT22;18309;43.658;1.312;2022-11-20T06:38:31;5.80;99.90
31729;DHT22;18309;43.658;1.312;2022-11-20T06:40:57;5.80;99.90
31729;DHT22;18309;43.658;1.312;2022-11-20T06:43:23;5.80;99.90
31729;DHT22;18309;43.658;1.312;2022-11-20T06:45:56;5.80;99.90
31729;DHT22;18309;43.658;1.312;2022-11-20T06:48:23;5.80;99.90
31729;DHT22;18309;43.658;1.312;2022-11-20T06:50:49;5.80;99.90
31729;DHT22;18309;43.658;1.312;2022-11-20T06:53:15;5.80;99.90
31729;DHT22;18309;43.658;1.312;2022-11-20T06:55:45;5.80;99.90
31729;DHT22;18309;43.658;1.312;2022-11-20T06:58:12;5.80;99.90
31729;DHT22;18309;43.658;1.312;2022-11-20T07:00:39;5.80;99.90
31729;DHT22;18309;43.658;1.312;2022-11-20T07:03:08;5.80;99.90
31729;DHT22;18309;43.658;1.312;2022-11-20T07:05:42;5.80;99.90
31729;DHT22;18309;43.658;1.312;2022-11-20T07:08:09;5.80;99.90
31729;DHT22;18309;43.658;1.312;2022-11-20T07:10:35;5.80;99.90
31729;DHT22;18309;43.658;1.312;2022-11-20T07:13:01;5.80;99.90
31729;DHT22;18309;43.658;1.312;2022-11-20T07:15:27;5.80;99.90
31729;DHT22;18309;43.658;1.312;2022-11-20T07:17:52;5.80;99.90
31729;DHT22;18309;43.658;1.312;2022-11-20T07:20:18;5.70;99.90
31729;DHT22;18309;43.658;1.312;2022-11-20T07:22:44;5.80;99.90
31729;DHT22;18309;43.658;1.312;2022-11-20T07:25:11;5.70;99.90
31729;DHT22;18309;43.658;1.312;2022-11-20T07:27:36;5.80;99.90
31729;DHT22;18309;43.658;1.312;2022-11-20T07:30:03;5.80;99.90
31729;DHT22;18309;43.658;1.312;2022-11-20T07:32:29;5.80;99.90
31729;DHT22;18309;43.658;1.312;2022-11-20T07:34:55;5.80;99.90
31729;DHT22;18309;43.658;1.312;2022-11-20T07:37:21;5.80;99.90
31729;DHT22;18309;43.658;1.312;2022-11-20T07:39:46;5.80;99.90
31729;DHT22;18309;43.658;1.312;2022-11-20T07:42:12;5.90;99.90
31729;DHT22;18309;43.658;1.312;2022-11-20T07:44:38;5.90;99.90
31729;DHT22;18309;43.658;1.312;2022-11-20T07:47:04;5.90;99.90
31729;DHT22;18309;43.658;1.312;2022-11-20T07:49:33;5.90;99.90
31729;DHT22;18309;43.658;1.312;2022-11-20T07:51:59;6.00;99.90
31729;DHT22;18309;43.658;1.312;2022-11-20T07:54:24;6.00;99.90
31729;DHT22;18309;43.658;1.312;2022-11-20T07:56:50;6.00;99.90
31729;DHT22;18309;43.658;1.312;2022-11-20T07:59:19;6.00;99.90
31729;DHT22;18309;43.658;1.312;2022-11-20T08:01:44;5.90;99.90
31729;DHT22;18309;43.658;1.312;2022-11-20T08:04:10;5.90;99.90
31729;DHT22;18309;43.658;1.312;2022-11-20T08:06:36;5.90;99.90
31729;DHT22;18309;43.658;1.312;2022-11-20T08:09:14;5.90;99.90
31729;DHT22;18309;43.658;1.312;2022-11-20T08:11:42;5.90;99.90
31729;DHT22;18309;43.658;1.312;2022-11-20T08:14:26;5.90;99.90
31729;DHT22;18309;43.658;1.312;2022-11-20T08:16:53;5.90;99.90
31729;DHT22;18309;43.658;1.312;2022-11-20T08:19:19;5.90;99.90
31729;DHT22;18309;43.658;1.312;2022-11-20T08:21:45;5.90;99.90
31729;DHT22;18309;43.658;1.312;2022-11-20T08:24:11;5.80;99.90
31729;DHT22;18309;43.658;1.312;2022-11-20T08:26:38;5.90;99.90
31729;DHT22;18309;43.658;1.312;2022-11-20T08:29:04;5.90;99.90
31729;DHT22;18309;43.658;1.312;2022-11-20T08:31:30;5.80;99.90
31729;DHT22;18309;43.658;1.312;2022-11-20T08:33:56;5.80;99.90
31729;DHT22;18309;43.658;1.312;2022-11-20T08:36:23;5.80;99.90
31729;DHT22;18309;43.658;1.312;2022-11-20T08:38:50;5.90;99.90
31729;DHT22;18309;43.658;1.312;2022-11-20T08:41:16;6.00;99.90
31729;DHT22;18309;43.658;1.312;2022-11-20T08:44:05;6.00;99.90
31729;DHT22;18309;43.658;1.312;2022-11-20T08:46:40;6.20;99.90
31729;DHT22;18309;43.658;1.312;2022-11-20T08:49:09;6.20;99.90
31729;DHT22;18309;43.658;1.312;2022-11-20T08:51:36;6.30;99.90
31729;DHT22;18309;43.658;1.312;2022-11-20T08:54:03;6.30;99.90
31729;DHT22;18309;43.658;1.312;2022-11-20T08:56:29;6.40;99.90
31729;DHT22;18309;43.658;1.312;2022-11-20T08:58:55;6.50;99.90
31729;DHT22;18309;43.658;1.312;2022-11-20T09:01:22;6.40;99.90
31729;DHT22;18309;43.658;1.312;2022-11-20T09:03:48;6.40;99.90
31729;DHT22;18309;43.658;1.312;2022-11-20T09:06:15;6.50;99.90
31729;DHT22;18309;43.658;1.312;2022-11-20T09:08:40;6.50;99.90
31729;DHT22;18309;43.658;1.312;2022-11-20T09:11:07;6.60;99.90
31729;DHT22;18309;43.658;1.312;2022-11-20T09:13:34;6.60;99.90
31729;DHT22;18309;43.658;1.312;2022-11-20T09:16:03;6.60;99.90
31729;DHT22;18309;43.658;1.312;2022-11-20T09:18:30;6.70;99.90
31729;DHT22;18309;43.658;1.312;2022-11-20T09:21:01;6.70;99.90
31729;DHT22;18309;43.658;1.312;2022-11-20T09:23:27;6.70;99.90
31729;DHT22;18309;43.658;1.312;2022-11-20T09:25:56;6.70;99.90
31729;DHT22;18309;43.658;1.312;2022-11-20T09:28:25;6.80;99.90
31729;DHT22;18309;43.658;1.312;2022-11-20T09:30:51;6.80;99.90
31729;DHT22;18309;43.658;1.312;2022-11-20T09:33:17;6.90;99.90
31729;DHT22;18309;43.658;1.312;2022-11-20T09:35:43;6.90;99.90
31729;DHT22;18309;43.658;1.312;2022-11-20T09:38:10;7.10;99.90
31729;DHT22;18309;43.658;1.312;2022-11-20T09:40:39;7.10;99.90
31729;DHT22;18309;43.658;1.312;2022-11-20T09:48:29;7.40;99.90
31729;DHT22;18309;43.658;1.312;2022-11-20T09:56:29;7.60;99.90
31729;DHT22;18309;43.658;1.312;2022-11-20T09:58:59;7.70;99.90
31729;DHT22;18309;43.658;1.312;2022-11-20T10:01:29;7.80;99.90
31729;DHT22;18309;43.658;1.312;2022-11-20T10:06:49;8.00;99.90
31729;DHT22;18309;43.658;1.312;2022-11-20T10:12:13;8.20;99.90
31729;DHT22;18309;43.658;1.312;2022-11-20T10:14:59;8.30;99.90
31729;DHT22;18309;43.658;1.312;2022-11-20T10:20:17;8.40;99.90
31729;DHT22;18309;43.658;1.312;2022-11-20T10:26:21;8.50;99.90
31729;DHT22;18309;43.658;1.312;2022-11-20T10:29:07;8.60;99.90
31729;DHT22;18309;43.658;1.312;2022-11-20T10:31:40;8.80;99.90
31729;DHT22;18309;43.658;1.312;2022-11-20T10:34:25;8.90;99.90
31729;DHT22;18309;43.658;1.312;2022-11-20T10:37:09;8.90;99.90
31729;DHT22;18309;43.658;1.312;2022-11-20T10:42:34;9.10;99.90
31729;DHT22;18309;43.658;1.312;2022-11-20T10:45:27;9.00;99.90
31729;DHT22;18309;43.658;1.312;2022-11-20T10:50:36;9.40;99.90
31729;DHT22;18309;43.658;1.312;2022-11-20T11:01:04;9.90;99.90
31729;DHT22;18309;43.658;1.312;2022-11-20T11:03:31;10.20;99.90
31729;DHT22;18309;43.658;1.312;2022-11-20T11:09:02;10.60;99.90
31729;DHT22;18309;43.658;1.312;2022-11-20T11:11:32;10.40;99.90
31729;DHT22;18309;43.658;1.312;2022-11-20T11:14:09;10.70;99.90
31729;DHT22;18309;43.658;1.312;2022-11-20T11:16:35;10.70;99.90
31729;DHT22;18309;43.658;1.312;2022-11-20T11:19:12;10.80;99.90
31729;DHT22;18309;43.658;1.312;2022-11-20T11:21:38;10.90;99.90
31729;DHT22;18309;43.658;1.312;2022-11-20T11:24:15;11.00;99.90
31729;DHT22;18309;43.658;1.312;2022-11-20T11:26:58;11.20;99.90
31729;DHT22;18309;43.658;1.312;2022-11-20T11:29:24;11.90;99.90
31729;DHT22;18309;43.658;1.312;2022-11-20T11:32:06;12.30;99.90
31729;DHT22;18309;43.658;1.312;2022-11-20T11:34:32;12.40;99.90
31729;DHT22;18309;43.658;1.312;2022-11-20T11:36:59;12.70;99.60
31729;DHT22;18309;43.658;1.312;2022-11-20T11:39:27;13.50;98.20
31729;DHT22;18309;43.658;1.312;2022-11-20T11:41:54;13.90;96.80
31729;DHT22;18309;43.658;1.312;2022-11-20T11:44:26;14.30;95.50
31729;DHT22;18309;43.658;1.312;2022-11-20T11:49:45;14.60;95.20
31729;DHT22;18309;43.658;1.312;2022-11-20T11:52:18;14.40;95.50
31729;DHT22;18309;43.658;1.312;2022-11-20T11:54:53;14.60;95.60
31729;DHT22;18309;43.658;1.312;2022-11-20T11:57:39;15.10;94.70
31729;DHT22;18309;43.658;1.312;2022-11-20T12:00:10;15.90;92.70
31729;DHT22;18309;43.658;1.312;2022-11-20T12:08:05;17.20;90.50
31729;DHT22;18309;43.658;1.312;2022-11-20T12:10:53;14.90;93.00
31729;DHT22;18309;43.658;1.312;2022-11-20T12:16:28;13.30;96.30
31729;DHT22;18309;43.658;1.312;2022-11-20T12:18:55;13.00;97.80
31729;DHT22;18309;43.658;1.312;2022-11-20T12:31:56;13.20;97.80
31729;DHT22;18309;43.658;1.312;2022-11-20T12:43:41;13.10;99.00
31729;DHT22;18309;43.658;1.312;2022-11-20T12:46:44;12.70;98.80
31729;DHT22;18309;43.658;1.312;2022-11-20T12:57:38;11.50;99.90
31729;DHT22;18309;43.658;1.312;2022-11-20T13:00:15;10.80;99.90
31729;DHT22;18309;43.658;1.312;2022-11-20T13:08:21;10.60;99.90
31729;DHT22;18309;43.658;1.312;2022-11-20T13:16:38;10.30;99.90
31729;DHT22;18309;43.658;1.312;2022-11-20T13:19:12;10.40;99.90
31729;DHT22;18309;43.658;1.312;2022-11-20T13:21:44;10.60;99.90
31729;DHT22;18309;43.658;1.312;2022-11-20T13:29:37;10.40;99.90
31729;DHT22;18309;43.658;1.312;2022-11-20T13:34:32;10.80;99.90
31729;DHT22;18309;43.658;1.312;2022-11-20T13:36:59;10.80;99.90
31729;DHT22;18309;43.658;1.312;2022-11-20T13:39:32;10.80;99.90
31729;DHT22;18309;43.658;1.312;2022-11-20T13:42:00;10.90;99.90
31729;DHT22;18309;43.658;1.312;2022-11-20T13:44:38;11.00;99.90
31729;DHT22;18309;43.658;1.312;2022-11-20T13:47:21;11.10;99.90
31729;DHT22;18309;43.658;1.312;2022-11-20T13:49:48;11.00;99.90
31729;DHT22;18309;43.658;1.312;2022-11-20T14:03:41;15.60;99.90
31729;DHT22;18309;43.658;1.312;2022-11-20T14:06:29;17.00;99.90
31729;DHT22;18309;43.658;1.312;2022-11-20T14:08:58;17.00;99.70
31729;DHT22;18309;43.658;1.312;2022-11-20T14:11:29;16.10;99.90
31729;DHT22;18309;43.658;1.312;2022-11-20T14:14:03;15.00;99.90
31729;DHT22;18309;43.658;1.312;2022-11-20T14:16:35;16.50;99.90
31729;DHT22;18309;43.658;1.312;2022-11-20T14:21:49;16.50;99.90
31729;DHT22;18309;43.658;1.312;2022-11-20T14:24:19;15.50;99.90
31729;DHT22;18309;43.658;1.312;2022-11-20T14:26:46;14.90;99.90
31729;DHT22;18309;43.658;1.312;2022-11-20T14:29:17;15.00;99.90
31729;DHT22;18309;43.658;1.312;2022-11-20T14:31:45;14.80;99.90
31729;DHT22;18309;43.658;1.312;2022-11-20T14:34:20;14.80;99.90
31729;DHT22;18309;43.658;1.312;2022-11-20T14:36:47;15.40;99.90
31729;DHT22;18309;43.658;1.312;2022-11-20T14:39:37;17.60;98.10
31729;DHT22;18309;43.658;1.312;2022-11-20T14:42:20;18.00;97.60
31729;DHT22;18309;43.658;1.312;2022-11-20T14:44:48;17.90;97.40
31729;DHT22;18309;43.658;1.312;2022-11-20T14:47:21;18.20;96.80
31729;DHT22;18309;43.658;1.312;2022-11-20T14:49:48;18.00;96.50
31729;DHT22;18309;43.658;1.312;2022-11-20T14:52:20;17.50;97.00
31729;DHT22;18309;43.658;1.312;2022-11-20T14:54:51;16.20;98.90
31729;DHT22;18309;43.658;1.312;2022-11-20T14:57:26;15.10;99.90
31729;DHT22;18309;43.658;1.312;2022-11-20T15:02:33;14.20;99.90
31729;DHT22;18309;43.658;1.312;2022-11-20T15:05:00;14.00;99.90
31729;DHT22;18309;43.658;1.312;2022-11-20T15:07:38;13.90;99.90
31729;DHT22;18309;43.658;1.312;2022-11-20T15:12:33;13.60;99.90
31729;DHT22;18309;43.658;1.312;2022-11-20T15:15:01;13.50;99.90
31729;DHT22;18309;43.658;1.312;2022-11-20T15:17:27;13.20;99.90
31729;DHT22;18309;43.658;1.312;2022-11-20T15:19:53;13.20;99.90
31729;DHT22;18309;43.658;1.312;2022-11-20T15:22:20;13.10;99.90
31729;DHT22;18309;43.658;1.312;2022-11-20T15:24:45;13.00;99.90
31729;DHT22;18309;43.658;1.312;2022-11-20T15:27:11;13.00;99.90
31729;DHT22;18309;43.658;1.312;2022-11-20T15:29:37;12.90;99.90
31729;DHT22;18309;43.658;1.312;2022-11-20T15:32:03;12.90;99.90
31729;DHT22;18309;43.658;1.312;2022-11-20T15:34:29;12.80;99.90
31729;DHT22;18309;43.658;1.312;2022-11-20T15:36:54;12.70;99.90
31729;DHT22;18309;43.658;1.312;2022-11-20T15:39:20;12.70;99.90
31729;DHT22;18309;43.658;1.312;2022-11-20T15:41:46;12.60;99.90
31729;DHT22;18309;43.658;1.312;2022-11-20T15:44:12;12.60;99.90
31729;DHT22;18309;43.658;1.312;2022-11-20T15:46:40;12.50;99.90
31729;DHT22;18309;43.658;1.312;2022-11-20T15:49:15;12.30;99.90
31729;DHT22;18309;43.658;1.312;2022-11-20T15:51:43;12.30;99.90
31729;DHT22;18309;43.658;1.312;2022-11-20T15:54:14;12.30;99.90
31729;DHT22;18309;43.658;1.312;2022-11-20T15:56:40;12.30;99.90
31729;DHT22;18309;43.658;1.312;2022-11-20T15:59:05;12.30;99.90
31729;DHT22;18309;43.658;1.312;2022-11-20T16:01:31;12.30;99.90
31729;DHT22;18309;43.658;1.312;2022-11-20T16:03:57;12.20;99.90
31729;DHT22;18309;43.658;1.312;2022-11-20T16:06:22;12.20;99.90
31729;DHT22;18309;43.658;1.312;2022-11-20T16:08:48;12.20;99.90
31729;DHT22;18309;43.658;1.312;2022-11-20T16:11:15;12.20;99.90
31729;DHT22;18309;43.658;1.312;2022-11-20T16:13:41;12.10;99.90
31729;DHT22;18309;43.658;1.312;2022-11-20T16:16:29;12.00;99.90
31729;DHT22;18309;43.658;1.312;2022-11-20T16:18:57;12.10;99.90
31729;DHT22;18309;43.658;1.312;2022-11-20T16:21:23;12.10;99.90
31729;DHT22;18309;43.658;1.312;2022-11-20T16:24:03;12.00;99.90
31729;DHT22;18309;43.658;1.312;2022-11-20T16:26:29;12.10;99.90
31729;DHT22;18309;43.658;1.312;2022-11-20T16:28:56;12.10;99.90
31729;DHT22;18309;43.658;1.312;2022-11-20T16:31:22;12.10;99.90
31729;DHT22;18309;43.658;1.312;2022-11-20T16:33:55;12.10;99.90
31729;DHT22;18309;43.658;1.312;2022-11-20T16:36:22;12.10;99.90
31729;DHT22;18309;43.658;1.312;2022-11-20T16:38:52;12.10;99.90
31729;DHT22;18309;43.658;1.312;2022-11-20T16:41:18;12.10;99.90
31729;DHT22;18309;43.658;1.312;2022-11-20T16:43:52;12.20;99.90
31729;DHT22;18309;43.658;1.312;2022-11-20T16:46:20;12.10;99.90
31729;DHT22;18309;43.658;1.312;2022-11-20T16:48:53;12.20;99.90
31729;DHT22;18309;43.658;1.312;2022-11-20T16:51:19;12.20;99.90
31729;DHT22;18309;43.658;1.312;2022-11-20T16:53:45;12.20;99.90
31729;DHT22;18309;43.658;1.312;2022-11-20T16:56:12;12.20;99.90
31729;DHT22;18309;43.658;1.312;2022-11-20T16:58:40;12.20;99.90
31729;DHT22;18309;43.658;1.312;2022-11-20T17:01:11;12.20;99.90
31729;DHT22;18309;43.658;1.312;2022-11-20T17:03:41;12.20;99.90
31729;DHT22;18309;43.658;1.312;2022-11-20T17:06:12;12.20;99.90
31729;DHT22;18309;43.658;1.312;2022-11-20T17:08:38;12.20;99.90
31729;DHT22;18309;43.658;1.312;2022-11-20T17:11:08;12.20;99.90
31729;DHT22;18309;43.658;1.312;2022-11-20T17:13:35;12.20;99.90
31729;DHT22;18309;43.658;1.312;2022-11-20T17:16:03;12.20;99.90
31729;DHT22;18309;43.658;1.312;2022-11-20T17:18:29;12.20;99.90
31729;DHT22;18309;43.658;1.312;2022-11-20T17:20:54;12.20;99.90
31729;DHT22;18309;43.658;1.312;2022-11-20T17:23:20;12.20;99.90
31729;DHT22;18309;43.658;1.312;2022-11-20T17:25:46;12.20;99.90
31729;DHT22;18309;43.658;1.312;2022-11-20T17:28:11;12.20;99.90
31729;DHT22;18309;43.658;1.312;2022-11-20T17:30:37;12.20;99.90
31729;DHT22;18309;43.658;1.312;2022-11-20T17:33:03;12.20;99.90
31729;DHT22;18309;43.658;1.312;2022-11-20T17:35:28;12.20;99.90
31729;DHT22;18309;43.658;1.312;2022-11-20T17:37:54;12.20;99.90
31729;DHT22;18309;43.658;1.312;2022-11-20T17:40:20;12.20;99.90
31729;DHT22;18309;43.658;1.312;2022-11-20T17:42:49;12.20;99.90
31729;DHT22;18309;43.658;1.312;2022-11-20T17:45:14;12.20;99.90
31729;DHT22;18309;43.658;1.312;2022-11-20T17:47:40;12.20;99.90
31729;DHT22;18309;43.658;1.312;2022-11-20T17:50:06;12.20;99.90
31729;DHT22;18309;43.658;1.312;2022-11-20T17:52:32;12.20;99.90
31729;DHT22;18309;43.658;1.312;2022-11-20T17:54:58;12.20;99.90
31729;DHT22;18309;43.658;1.312;2022-11-20T17:57:24;12.20;99.90
31729;DHT22;18309;43.658;1.312;2022-11-20T18:00:08;12.20;99.90